createdAt,value
2023-01-04T09:55:50.479Z,64.54
2023-01-04T09:58:36.065Z,58.31
2023-01-04T10:01:07.156Z,56.52
2023-01-04T10:03:39.784Z,53.80
2023-01-04T10:06:10.412Z,52.76
2023-01-04T10:08:37.125Z,51.97
2023-01-04T10:11:09.628Z,51.58
2023-01-04T10:14:02.609Z,51.16
2023-01-04T10:17:35.636Z,51.43
2023-01-04T10:23:29.535Z,49.76
2023-01-04T10:26:02.901Z,49.76
2023-01-04T10:28:51.143Z,50.88
2023-01-04T10:31:40.280Z,49.36
2023-01-04T10:34:28.478Z,45.72
2023-01-04T10:37:13.931Z,45.61
2023-01-04T10:39:41.875Z,46.94
2023-01-04T10:42:31.015Z,46.75
2023-01-04T10:45:18.069Z,47.34
2023-01-04T10:48:07.738Z,47.01
2023-01-04T10:50:47.900Z,47.28
2023-01-04T10:53:27.305Z,47.04
2023-01-04T10:56:24.515Z,47.35
2023-01-04T10:59:18.695Z,46.54
2023-01-04T11:01:57.500Z,47.53
2023-01-04T11:04:30.181Z,47.29
2023-01-04T11:07:07.717Z,47.08
2023-01-04T11:09:44.511Z,46.66
2023-01-04T11:12:17.173Z,47.27
2023-01-04T11:14:43.696Z,47.26
2023-01-04T11:17:12.197Z,46.48
2023-01-04T11:19:39.743Z,46.52
2023-01-04T11:22:12.270Z,46.17
2023-01-04T11:25:00.353Z,46.26
2023-01-04T11:27:32.553Z,45.46
2023-01-04T11:30:11.485Z,45.15
2023-01-04T11:33:17.044Z,45.20
2023-01-04T11:35:48.321Z,46.25
2023-01-04T11:38:22.284Z,45.94
2023-01-04T11:40:58.021Z,46.17
2023-01-04T11:43:26.696Z,45.17
2023-01-04T11:46:00.228Z,44.10
2023-01-04T11:48:47.005Z,44.21
2023-01-04T11:51:34.365Z,43.66
2023-01-04T11:54:19.747Z,43.62
2023-01-04T11:57:11.993Z,43.20
2023-01-04T11:59:39.001Z,42.58
2023-01-04T12:02:35.146Z,43.42
2023-01-04T12:05:21.244Z,42.26
2023-01-04T12:07:52.991Z,42.05
2023-01-04T12:10:26.536Z,41.50
2023-01-04T12:12:59.439Z,41.42
2023-01-04T12:16:08.345Z,40.73
2023-01-04T12:18:42.520Z,40.12
2023-01-04T12:21:24.352Z,39.43
2023-01-04T12:23:52.557Z,39.15
2023-01-04T12:26:20.466Z,37.65
2023-01-04T12:28:53.646Z,37.22
2023-01-04T12:31:21.098Z,37.56
2023-01-04T12:33:55.218Z,36.70
2023-01-04T12:36:43.063Z,37.85
2023-01-04T12:39:12.999Z,37.03
2023-01-04T12:41:39.465Z,36.33
2023-01-04T12:44:46.852Z,36.41
2023-01-04T12:47:38.115Z,36.35
2023-01-04T12:50:10.898Z,34.74
2023-01-04T12:53:10.716Z,35.07
2023-01-04T12:55:41.958Z,34.41
2023-01-04T12:58:51.141Z,34.27
2023-01-04T13:01:29.067Z,33.95
2023-01-04T13:04:05.933Z,34.70
2023-01-04T13:06:41.568Z,34.39
2023-01-04T13:09:25.010Z,34.21
2023-01-04T13:12:26.029Z,34.21
2023-01-04T13:15:02.610Z,33.33
2023-01-04T13:17:37.592Z,33.89
2023-01-04T13:20:20.293Z,33.71
2023-01-04T13:22:53.428Z,33.16
2023-01-04T13:25:23.091Z,32.21
2023-01-04T13:28:01.976Z,32.05
2023-01-04T13:30:29.344Z,32.02
2023-01-04T13:33:25.079Z,31.98
2023-01-04T13:35:42.626Z,33.16
2023-01-04T13:38:15.663Z,33.30
2023-01-04T13:40:49.362Z,32.85
2023-01-04T13:43:16.224Z,32.78
2023-01-04T13:46:19.154Z,32.66
2023-01-04T13:48:49.148Z,33.32
2023-01-04T13:51:33.930Z,33.56
2023-01-04T13:54:06.335Z,32.83
2023-01-04T13:56:34.726Z,33.56
2023-01-04T13:59:01.932Z,33.16
2023-01-04T14:01:35.665Z,32.73
2023-01-04T14:04:03.795Z,32.20
2023-01-04T14:06:41.307Z,33.26
2023-01-04T14:09:10.825Z,32.02
2023-01-04T14:12:04.070Z,32.17
2023-01-04T14:14:38.687Z,32.12
2023-01-04T14:17:12.642Z,32.03
2023-01-04T14:19:45.443Z,33.00
2023-01-04T14:22:42.628Z,32.34
2023-01-04T14:25:30.939Z,32.57
2023-01-04T14:28:19.460Z,32.65
2023-01-04T14:30:48.370Z,31.76
2023-01-04T14:33:26.315Z,32.80
2023-01-04T14:36:04.187Z,32.66
2023-01-04T14:38:35.021Z,32.16
2023-01-04T14:41:26.231Z,32.48
2023-01-04T14:44:03.530Z,32.88
2023-01-04T14:46:32.012Z,32.84
2023-01-04T14:48:59.257Z,32.77
2023-01-04T14:51:34.821Z,33.09
2023-01-04T14:54:01.448Z,32.89
2023-01-04T14:56:27.995Z,33.62
2023-01-04T14:58:54.617Z,33.67
2023-01-04T15:01:21.262Z,32.74
2023-01-04T15:03:47.989Z,33.51
2023-01-04T15:06:14.595Z,34.92
2023-01-04T15:08:41.197Z,33.88
2023-01-04T15:11:09.888Z,33.43
2023-01-04T15:13:39.735Z,34.75
2023-01-04T15:16:09.847Z,34.86
2023-01-04T15:18:36.468Z,35.20
2023-01-04T15:21:03.989Z,35.32
2023-01-04T15:23:30.564Z,35.18
2023-01-04T15:25:57.171Z,36.27
2023-01-04T15:28:25.997Z,35.36
2023-01-04T15:30:52.622Z,36.20
2023-01-04T15:33:19.350Z,36.45
2023-01-04T15:35:46.651Z,36.37
2023-01-04T15:38:18.357Z,36.59
2023-01-04T15:40:45.297Z,36.06
2023-01-04T15:43:11.917Z,35.83
2023-01-04T15:45:39.561Z,37.54
2023-01-04T15:48:07.908Z,38.64
2023-01-04T15:50:36.425Z,37.56
2023-01-04T15:53:03.130Z,38.77
2023-01-04T15:55:34.133Z,38.20
2023-01-04T15:58:03.091Z,39.02
2023-01-04T16:00:29.694Z,40.36
2023-01-04T16:02:56.881Z,39.27
2023-01-04T16:05:23.495Z,39.61
2023-01-04T16:07:50.080Z,39.26
2023-01-04T16:10:16.823Z,41.36
2023-01-04T16:12:44.245Z,41.68
2023-01-04T16:15:19.205Z,42.54
2023-01-04T16:17:45.743Z,44.11
2023-01-04T16:20:14.944Z,42.43
2023-01-04T16:22:42.261Z,43.40
2023-01-04T16:25:11.227Z,43.64
2023-01-04T16:27:39.302Z,44.97
2023-01-04T16:30:13.966Z,45.59
2023-01-04T16:32:43.899Z,45.87
2023-01-04T16:35:11.412Z,47.28
2023-01-04T16:37:38.057Z,47.00
2023-01-04T16:40:06.831Z,47.68
2023-01-04T16:42:35.241Z,46.68
2023-01-04T16:45:01.937Z,47.45
2023-01-04T16:47:28.559Z,48.59
2023-01-04T16:49:55.262Z,47.64
2023-01-04T16:52:21.922Z,48.14
2023-01-04T16:54:49.237Z,47.34
2023-01-04T16:57:15.866Z,47.16
2023-01-04T16:59:42.892Z,47.53
2023-01-04T17:02:12.001Z,49.03
2023-01-04T17:04:38.775Z,48.49
2023-01-04T17:07:05.981Z,47.62
2023-01-04T17:09:32.567Z,48.90
2023-01-04T17:12:45.099Z,48.25
2023-01-04T17:15:07.819Z,47.62
2023-01-04T17:17:37.244Z,49.80
2023-01-04T17:20:04.485Z,48.92
2023-01-04T17:22:34.517Z,47.38
2023-01-04T17:25:01.519Z,48.68
2023-01-04T17:27:28.050Z,48.17
2023-01-04T17:29:54.629Z,48.51
2023-01-04T17:32:21.210Z,49.46
2023-01-04T17:34:49.590Z,48.71
2023-01-04T17:37:16.135Z,48.09
2023-01-04T17:39:42.750Z,49.51
2023-01-04T17:42:09.313Z,49.64
2023-01-04T17:44:35.831Z,49.27
2023-01-04T17:47:02.404Z,47.88
2023-01-04T17:49:32.130Z,49.51
2023-01-04T17:51:59.159Z,48.42
2023-01-04T17:54:26.805Z,49.26
2023-01-04T17:56:53.408Z,49.01
2023-01-04T17:59:20.158Z,47.87
2023-01-04T18:01:46.920Z,48.81
2023-01-04T18:04:13.526Z,49.70
2023-01-04T18:06:40.190Z,48.99
2023-01-04T18:09:07.826Z,49.73
2023-01-04T18:11:35.326Z,50.12
2023-01-04T18:14:05.767Z,48.62
2023-01-04T18:16:55.905Z,51.13
2023-01-04T18:19:24.602Z,49.59
2023-01-04T18:21:51.175Z,49.40
2023-01-04T18:29:52.785Z,50.64
2023-01-04T18:32:20.022Z,49.58
2023-01-04T18:34:46.599Z,51.27
2023-01-04T18:37:13.757Z,50.95
2023-01-04T18:39:40.397Z,52.33
2023-01-04T18:42:06.920Z,51.55
2023-01-04T18:44:34.985Z,49.50
2023-01-04T18:47:03.173Z,49.88
2023-01-04T18:49:29.752Z,50.74
2023-01-04T18:51:56.280Z,49.33
2023-01-04T18:54:22.924Z,48.70
2023-01-04T18:56:49.526Z,51.06
2023-01-04T18:59:18.970Z,50.61
2023-01-04T19:01:45.967Z,51.94
2023-01-04T19:04:16.014Z,51.46
2023-01-04T19:06:42.923Z,51.15
2023-01-04T19:09:09.529Z,51.42
2023-01-04T19:11:36.175Z,51.41
2023-01-04T19:14:04.004Z,52.58
2023-01-04T19:16:31.566Z,50.86
2023-01-04T19:19:01.793Z,50.18
2023-01-04T19:21:29.117Z,50.81
2023-01-04T19:23:56.322Z,50.30
2023-01-04T19:26:24.033Z,51.43
2023-01-04T19:28:51.393Z,51.58
2023-01-04T19:31:20.243Z,52.86
2023-01-04T19:33:47.722Z,49.89
2023-01-04T19:36:16.989Z,51.20
2023-01-04T19:38:43.510Z,49.93
2023-01-04T19:41:16.079Z,51.88
2023-01-04T19:43:42.970Z,52.30
2023-01-04T19:46:11.650Z,50.41
2023-01-04T19:48:39.026Z,49.90
2023-01-04T19:51:14.981Z,48.93
2023-01-04T19:53:42.995Z,50.03
2023-01-04T19:56:10.666Z,49.96
2023-01-04T19:58:38.193Z,49.68
2023-01-04T20:01:06.040Z,48.48
2023-01-04T20:03:33.166Z,48.74
2023-01-04T20:06:05.117Z,48.77
2023-01-04T20:08:32.127Z,50.56
2023-01-04T20:11:00.779Z,49.36
2023-01-04T20:13:29.537Z,50.21
2023-01-04T20:15:56.284Z,48.90
2023-01-04T20:18:25.843Z,48.17
2023-01-04T20:20:52.942Z,47.96
2023-01-04T20:23:21.591Z,48.00
2023-01-04T20:25:50.148Z,47.63
2023-01-04T20:28:18.010Z,48.67
2023-01-04T20:30:44.615Z,46.97
2023-01-04T20:33:11.364Z,46.78
2023-01-04T20:35:41.901Z,47.27
2023-01-04T20:38:09.871Z,47.09
2023-01-04T20:40:38.474Z,47.91
2023-01-04T20:43:23.567Z,47.50
2023-01-04T20:45:50.178Z,47.30
2023-01-04T20:48:16.994Z,47.91
2023-01-04T20:50:43.629Z,47.46
2023-01-04T20:53:11.388Z,47.58
2023-01-04T20:55:42.414Z,47.15
2023-01-04T20:58:16.005Z,49.06
2023-01-04T21:00:43.754Z,47.74
2023-01-04T21:03:11.212Z,48.10
2023-01-04T21:05:46.835Z,46.80
2023-01-04T21:08:13.710Z,46.31
2023-01-04T21:10:43.135Z,47.00
2023-01-04T21:13:11.594Z,47.57
2023-01-04T21:15:39.129Z,46.89
2023-01-04T21:18:06.321Z,47.75
2023-01-04T21:20:33.318Z,48.37
2023-01-04T21:23:00.316Z,46.53
2023-01-04T21:25:26.913Z,46.91
2023-01-04T21:27:53.631Z,47.47
2023-01-04T21:30:21.128Z,48.62
2023-01-04T21:32:47.811Z,48.08
2023-01-04T21:35:14.407Z,48.99
2023-01-04T21:37:40.977Z,50.41
2023-01-04T21:40:07.958Z,50.69
2023-01-04T21:42:34.486Z,51.78
2023-01-04T21:45:01.039Z,51.79
2023-01-04T21:47:31.082Z,52.05
2023-01-04T21:49:57.829Z,52.47
2023-01-04T21:52:24.529Z,51.53
2023-01-04T21:54:51.130Z,53.54
2023-01-04T21:57:17.711Z,53.71
2023-01-04T21:59:44.202Z,55.90
2023-01-04T22:02:18.997Z,57.27
2023-01-04T22:04:46.272Z,56.64
2023-01-04T22:07:12.830Z,56.48
2023-01-04T22:09:39.553Z,57.25
2023-01-04T22:12:06.582Z,57.61
2023-01-04T22:14:33.504Z,58.11
2023-01-04T22:17:00.159Z,59.74
2023-01-04T22:19:27.275Z,62.19
2023-01-04T22:21:53.797Z,63.75
2023-01-04T22:24:20.409Z,64.02
2023-01-04T22:26:49.162Z,63.14
2023-01-04T22:29:16.025Z,64.36
2023-01-04T22:31:42.781Z,64.05
2023-01-04T22:34:09.409Z,63.81
2023-01-04T22:36:35.941Z,67.57
2023-01-04T22:39:02.483Z,69.70
2023-01-04T22:41:29.917Z,70.16
2023-01-04T22:44:03.237Z,69.83
2023-01-04T22:46:30.910Z,71.44
2023-01-04T22:48:58.794Z,71.69
2023-01-04T22:51:27.624Z,69.16
2023-01-04T22:53:59.578Z,72.92
2023-01-04T22:56:27.526Z,70.55
2023-01-04T22:58:55.876Z,69.59
2023-01-04T23:01:31.092Z,71.75
2023-01-04T23:04:00.219Z,69.52
2023-01-04T23:06:28.374Z,71.61
2023-01-04T23:09:07.760Z,69.08
2023-01-04T23:11:35.982Z,69.95
2023-01-04T23:14:04.341Z,70.03
2023-01-04T23:16:33.171Z,66.77
2023-01-04T23:19:01.569Z,66.01
2023-01-04T23:21:28.444Z,66.92
2023-01-04T23:23:54.998Z,65.76
2023-01-04T23:26:23.226Z,65.21
2023-01-04T23:28:50.690Z,62.31
2023-01-04T23:31:20.455Z,63.55
2023-01-04T23:33:52.404Z,61.05
2023-01-04T23:36:24.189Z,61.95
2023-01-04T23:38:53.783Z,61.03
2023-01-04T23:41:20.973Z,59.76
2023-01-04T23:43:47.804Z,61.27
2023-01-04T23:46:17.036Z,60.42
2023-01-04T23:48:44.401Z,59.63
2023-01-04T23:51:12.966Z,58.03
2023-01-04T23:53:39.800Z,58.48
2023-01-04T23:56:11.679Z,57.83
2023-01-04T23:58:38.236Z,58.61
